createdAt,value
2023-05-23T00:01:51.088Z,16.90
2023-05-23T00:04:33.483Z,17.00
2023-05-23T00:07:20.595Z,17.00
2023-05-23T00:10:00.431Z,16.90
2023-05-23T00:12:48.400Z,16.90
2023-05-23T00:15:29.549Z,16.90
2023-05-23T00:18:23.436Z,16.90
2023-05-23T00:21:10.517Z,16.90
2023-05-23T00:23:50.480Z,16.80
2023-05-23T00:26:30.937Z,16.80
2023-05-23T00:29:22.571Z,16.80
2023-05-23T00:32:10.592Z,16.70
2023-05-23T00:34:52.460Z,16.70
2023-05-23T00:37:40.685Z,16.70
2023-05-23T00:40:34.478Z,16.70
2023-05-23T00:43:46.853Z,16.70
2023-05-23T00:46:33.496Z,16.60
2023-05-23T00:49:13.616Z,16.50
2023-05-23T00:52:00.486Z,16.50
2023-05-23T00:54:42.006Z,16.50
2023-05-23T00:57:29.482Z,16.50
2023-05-23T01:00:18.477Z,16.50
2023-05-23T01:02:58.842Z,16.50
2023-05-23T01:05:45.500Z,16.50
2023-05-23T01:08:32.675Z,16.40
2023-05-23T01:11:16.483Z,16.40
2023-05-23T01:14:07.707Z,16.30
2023-05-23T01:17:08.869Z,16.20
2023-05-23T01:20:06.196Z,16.10
2023-05-23T01:23:10.500Z,16.00
2023-05-23T01:26:23.592Z,15.80
2023-05-23T01:29:15.662Z,15.60
2023-05-23T01:31:56.585Z,15.60
2023-05-23T01:34:43.961Z,15.50
2023-05-23T01:37:26.617Z,15.40
2023-05-23T01:40:13.686Z,15.30
2023-05-23T01:42:54.544Z,15.20
2023-05-23T01:45:41.972Z,15.10
2023-05-23T01:48:22.616Z,14.90
2023-05-23T01:51:10.691Z,14.90
2023-05-23T01:53:50.550Z,14.80
2023-05-23T01:56:37.753Z,14.80
2023-05-23T01:59:18.572Z,14.70
2023-05-23T02:02:06.165Z,14.70
2023-05-23T02:04:45.639Z,14.80
2023-05-23T02:07:32.660Z,14.80
2023-05-23T02:10:14.561Z,14.80
2023-05-23T02:13:01.756Z,14.80
2023-05-23T02:15:41.795Z,14.70
2023-05-23T02:18:30.255Z,14.60
2023-05-23T02:21:11.690Z,14.60
2023-05-23T02:23:58.828Z,14.60
2023-05-23T02:26:38.707Z,14.60
2023-05-23T02:29:25.753Z,14.60
2023-05-23T02:32:05.589Z,14.50
2023-05-23T02:35:07.694Z,14.50
2023-05-23T02:37:57.352Z,14.40
2023-05-23T02:40:44.719Z,14.40
2023-05-23T02:43:24.718Z,14.40
2023-05-23T02:46:12.625Z,14.40
2023-05-23T02:48:52.697Z,14.40
2023-05-23T02:51:40.621Z,14.40
2023-05-23T02:54:23.832Z,14.30
2023-05-23T02:57:10.612Z,14.30
2023-05-23T02:59:50.946Z,14.40
2023-05-23T03:02:37.725Z,14.40
2023-05-23T03:05:17.745Z,14.30
2023-05-23T03:08:04.735Z,14.30
2023-05-23T03:10:44.869Z,14.40
2023-05-23T03:13:31.655Z,14.40
2023-05-23T03:16:13.227Z,14.50
2023-05-23T03:18:59.813Z,14.60
2023-05-23T03:21:39.771Z,14.60
2023-05-23T03:24:26.662Z,14.60
2023-05-23T03:27:06.876Z,14.60
2023-05-23T03:29:54.686Z,14.60
2023-05-23T03:32:41.709Z,14.70
2023-05-23T03:35:28.989Z,14.60
2023-05-23T03:38:08.821Z,14.60
2023-05-23T03:40:56.186Z,14.60
2023-05-23T03:43:35.720Z,14.50
2023-05-23T03:46:22.828Z,14.40
2023-05-23T03:49:02.697Z,14.50
2023-05-23T03:51:49.862Z,14.60
2023-05-23T03:54:29.717Z,14.70
2023-05-23T03:57:16.881Z,14.60
2023-05-23T03:59:58.763Z,14.70
2023-05-23T04:02:52.145Z,14.80
2023-05-23T04:05:38.862Z,14.90
2023-05-23T04:08:25.976Z,14.90
2023-05-23T04:11:06.767Z,15.00
2023-05-23T04:13:48.082Z,15.10
2023-05-23T04:16:34.836Z,15.10
2023-05-23T04:19:22.910Z,15.10
2023-05-23T04:22:02.767Z,15.10
2023-05-23T04:24:49.864Z,15.10
2023-05-23T04:27:32.799Z,15.10
2023-05-23T04:30:14.367Z,15.30
2023-05-23T04:32:54.938Z,15.30
2023-05-23T04:35:45.873Z,15.40
2023-05-23T04:38:39.765Z,15.50
2023-05-23T04:41:29.811Z,15.60
2023-05-23T04:44:26.930Z,15.60
2023-05-23T04:47:25.833Z,15.50
2023-05-23T04:50:13.355Z,15.60
2023-05-23T04:52:59.831Z,15.60
2023-05-23T04:55:40.033Z,15.60
2023-05-23T04:58:29.846Z,15.70
2023-05-23T05:01:14.166Z,15.70
2023-05-23T05:04:00.876Z,15.70
2023-05-23T05:06:41.414Z,15.80
2023-05-23T05:09:28.829Z,15.90
2023-05-23T05:12:09.022Z,16.00
2023-05-23T05:14:55.777Z,16.10
2023-05-23T05:17:43.930Z,16.10
2023-05-23T05:23:04.845Z,16.30
2023-05-23T05:25:44.944Z,16.40
2023-05-23T05:28:31.786Z,16.50
2023-05-23T05:31:15.594Z,16.60
2023-05-23T05:34:02.839Z,16.70
2023-05-23T05:36:46.109Z,16.80
2023-05-23T05:39:33.112Z,16.90
2023-05-23T05:42:13.061Z,17.00
2023-05-23T05:44:59.817Z,17.00
2023-05-23T05:47:41.919Z,17.10
2023-05-23T05:50:28.826Z,17.20
2023-05-23T05:53:10.083Z,17.30
2023-05-23T05:55:56.819Z,17.40
2023-05-23T05:58:39.026Z,17.50
2023-05-23T06:01:28.839Z,17.50
2023-05-23T06:04:09.136Z,17.70
2023-05-23T06:06:55.875Z,17.80
2023-05-23T06:09:36.241Z,17.90
2023-05-23T06:12:22.925Z,17.90
2023-05-23T06:15:03.147Z,18.10
2023-05-23T06:17:51.923Z,18.10
2023-05-23T06:20:40.023Z,18.20
2023-05-23T06:23:29.960Z,18.30
2023-05-23T06:26:11.064Z,18.50
2023-05-23T06:28:58.053Z,18.50
2023-05-23T06:31:37.910Z,18.60
2023-05-23T06:34:24.959Z,18.70
2023-05-23T06:37:04.874Z,18.80
2023-05-23T06:40:52.869Z,18.90
2023-05-23T06:43:48.980Z,19.10
2023-05-23T06:46:31.279Z,19.20
2023-05-23T06:49:17.918Z,19.40
2023-05-23T06:52:11.939Z,19.50
2023-05-23T06:54:59.028Z,19.60
2023-05-23T06:57:39.900Z,19.80
2023-05-23T07:00:27.155Z,20.10
2023-05-23T07:03:26.035Z,20.30
2023-05-23T07:06:12.604Z,20.60
2023-05-23T07:08:59.915Z,20.80
2023-05-23T07:11:47.069Z,21.10
2023-05-23T07:14:27.962Z,21.40
2023-05-23T07:17:08.273Z,21.60
2023-05-23T07:19:54.998Z,21.70
2023-05-23T07:22:43.031Z,21.90
2023-05-23T07:25:23.967Z,22.10
2023-05-23T07:28:12.151Z,22.40
2023-05-23T07:30:53.118Z,22.70
2023-05-23T07:33:41.082Z,22.90
2023-05-23T07:36:30.980Z,23.10
2023-05-23T07:39:29.038Z,23.30
2023-05-23T07:42:17.148Z,23.50
2023-05-23T07:44:56.976Z,24.00
2023-05-23T07:47:44.143Z,24.40
2023-05-23T07:50:24.966Z,24.70
2023-05-23T07:53:13.208Z,25.40
2023-05-23T07:55:54.077Z,25.60
2023-05-23T07:58:39.337Z,26.00
2023-05-23T08:01:25.991Z,25.50
2023-05-23T08:04:10.505Z,25.40
2023-05-23T08:07:29.095Z,25.40
2023-05-23T08:10:11.373Z,25.20
2023-05-23T08:12:51.077Z,25.00
2023-05-23T08:15:39.102Z,24.90
2023-05-23T08:18:31.161Z,24.80
2023-05-23T08:21:14.081Z,24.80
2023-05-23T08:24:01.222Z,25.00
2023-05-23T08:26:43.189Z,25.00
2023-05-23T08:29:30.336Z,25.10
2023-05-23T08:32:10.219Z,25.10
2023-05-23T08:34:57.218Z,25.10
2023-05-23T08:37:38.164Z,25.10
2023-05-23T08:40:37.144Z,25.20
2023-05-23T08:43:26.163Z,24.90
2023-05-23T08:46:06.445Z,24.80
2023-05-23T08:48:57.182Z,24.40
2023-05-23T08:51:38.356Z,24.00
2023-05-23T08:54:31.222Z,23.70
2023-05-23T08:57:11.509Z,23.40
2023-05-23T09:00:06.281Z,23.10
2023-05-23T09:02:46.424Z,22.90
2023-05-23T09:05:52.359Z,22.80
2023-05-23T09:08:39.156Z,22.70
2023-05-23T09:11:22.109Z,22.60
2023-05-23T09:14:15.205Z,22.70
2023-05-23T09:17:07.403Z,22.60
2023-05-23T09:19:48.169Z,22.60
2023-05-23T09:22:49.661Z,22.70
2023-05-23T09:25:37.185Z,22.60
2023-05-23T09:28:24.345Z,22.60
2023-05-23T09:31:05.304Z,22.50
2023-05-23T09:33:55.288Z,22.50
2023-05-23T09:36:37.206Z,22.50
2023-05-23T09:39:31.189Z,22.60
2023-05-23T09:42:18.391Z,22.70
2023-05-23T09:44:58.341Z,24.00
2023-05-23T09:47:45.327Z,25.00
2023-05-23T09:50:25.355Z,24.90
2023-05-23T09:53:12.198Z,26.00
2023-05-23T09:55:52.945Z,27.10
2023-05-23T09:58:40.230Z,28.50
2023-05-23T10:01:20.434Z,29.60
2023-05-23T10:04:08.430Z,28.50
2023-05-23T10:06:57.457Z,26.90
2023-05-23T10:09:46.555Z,26.10
2023-05-23T10:12:39.223Z,27.20
2023-05-23T10:15:26.914Z,28.10
2023-05-23T10:18:14.289Z,28.30
2023-05-23T10:21:01.388Z,28.30
2023-05-23T10:23:43.272Z,28.60
2023-05-23T10:26:30.365Z,29.50
2023-05-23T10:29:12.286Z,30.30
2023-05-23T10:31:59.355Z,30.20
2023-05-23T10:34:44.273Z,29.70
2023-05-23T10:40:11.434Z,28.50
2023-05-23T10:43:13.531Z,28.50
2023-05-23T10:46:00.371Z,29.00
2023-05-23T10:48:48.394Z,29.10
2023-05-23T10:51:45.322Z,29.50
2023-05-23T10:54:34.340Z,29.90
2023-05-23T10:57:19.147Z,30.20
2023-05-23T11:00:06.351Z,29.80
2023-05-23T11:03:10.296Z,29.30
2023-05-23T11:06:09.323Z,29.30
2023-05-23T11:09:01.893Z,29.30
2023-05-23T11:12:05.453Z,29.50
2023-05-23T11:14:48.813Z,29.60
2023-05-23T11:17:45.396Z,29.00
2023-05-23T11:20:32.573Z,29.40
2023-05-23T11:23:14.343Z,30.10
2023-05-23T11:26:01.621Z,30.70
2023-05-23T11:29:01.623Z,31.40
2023-05-23T11:31:48.385Z,31.10
2023-05-23T11:34:30.592Z,31.20
2023-05-23T11:37:18.472Z,31.40
2023-05-23T11:40:12.576Z,31.90
2023-05-23T11:42:59.375Z,31.90
2023-05-23T11:45:43.439Z,31.30
2023-05-23T11:48:30.407Z,30.80
2023-05-23T11:51:10.505Z,30.70
2023-05-23T11:53:57.397Z,31.20
2023-05-23T11:56:37.490Z,31.10
2023-05-23T11:59:24.468Z,30.80
2023-05-23T12:02:04.609Z,30.80
2023-05-23T12:04:51.529Z,31.00
2023-05-23T12:07:31.954Z,31.20
2023-05-23T12:10:19.508Z,31.30
2023-05-23T12:13:01.052Z,31.00
2023-05-23T12:15:49.782Z,29.50
2023-05-23T12:18:37.986Z,28.60
2023-05-23T12:42:34.335Z,25.80
2023-05-23T12:45:14.499Z,25.50
2023-05-23T12:48:01.442Z,25.10
2023-05-23T12:50:41.454Z,25.00
2023-05-23T12:53:29.364Z,24.80
2023-05-23T12:56:09.480Z,24.70
2023-05-23T12:58:56.433Z,24.60
2023-05-23T13:01:36.527Z,24.80
2023-05-23T13:04:23.498Z,25.00
2023-05-23T13:07:12.374Z,25.00
2023-05-23T13:09:52.653Z,24.90
2023-05-23T13:12:40.469Z,25.00
2023-05-23T13:15:27.477Z,25.10
2023-05-23T13:18:07.459Z,25.10
2023-05-23T13:20:57.710Z,25.00
2023-05-23T13:23:37.424Z,24.90
2023-05-23T13:26:18.039Z,24.60
2023-05-23T13:29:04.384Z,24.50
2023-05-23T13:31:44.653Z,24.50
2023-05-23T13:34:31.422Z,24.40
2023-05-23T13:37:18.570Z,24.40
2023-05-23T13:40:12.400Z,24.50
2023-05-23T13:42:59.529Z,24.50
2023-05-23T13:45:40.596Z,24.60
2023-05-23T13:48:27.554Z,24.50
2023-05-23T13:51:08.570Z,24.50
2023-05-23T13:53:55.835Z,24.50
2023-05-23T13:56:35.459Z,24.50
2023-05-23T13:59:22.557Z,24.70
2023-05-23T14:02:02.770Z,24.70
2023-05-23T14:04:50.341Z,24.60
2023-05-23T14:07:30.461Z,24.60
2023-05-23T14:10:24.590Z,24.60
2023-05-23T14:13:12.214Z,24.50
2023-05-23T14:15:53.490Z,24.40
2023-05-23T14:18:40.594Z,24.30
2023-05-23T14:21:20.484Z,24.30
2023-05-23T14:24:07.667Z,24.20
2023-05-23T14:26:47.454Z,24.20
2023-05-23T14:29:34.619Z,24.30
2023-05-23T14:32:14.603Z,24.40
2023-05-23T14:35:01.606Z,24.30
2023-05-23T14:37:41.492Z,24.20
2023-05-23T14:40:36.536Z,24.10
2023-05-23T14:43:23.546Z,24.10
2023-05-23T14:46:03.640Z,24.10
2023-05-23T14:49:16.506Z,24.10
2023-05-23T14:51:56.587Z,24.10
2023-05-23T14:54:43.621Z,24.10
2023-05-23T14:57:30.531Z,24.10
2023-05-23T15:00:11.810Z,24.10
2023-05-23T15:02:58.608Z,23.90
2023-05-23T15:05:48.585Z,23.90
2023-05-23T15:08:28.552Z,23.90
2023-05-23T15:11:15.769Z,24.00
2023-05-23T15:13:55.558Z,24.00
2023-05-23T15:16:44.638Z,24.00
2023-05-23T15:19:24.644Z,23.90
2023-05-23T15:22:22.279Z,23.80
2023-05-23T15:25:12.631Z,23.80
2023-05-23T15:27:56.459Z,23.90
2023-05-23T15:30:43.770Z,23.90
2023-05-23T15:33:30.729Z,23.90
2023-05-23T15:36:10.637Z,24.00
2023-05-23T15:38:57.704Z,23.90
2023-05-23T15:41:44.574Z,24.00
2023-05-23T15:44:24.682Z,24.00
2023-05-23T15:47:11.685Z,24.00
2023-05-23T15:49:58.744Z,23.90
2023-05-23T15:52:38.891Z,24.00
2023-05-23T15:55:25.580Z,24.00
2023-05-23T15:58:12.584Z,23.90
2023-05-23T16:00:59.653Z,23.90
2023-05-23T16:03:47.026Z,23.80
2023-05-23T16:06:26.677Z,23.80
2023-05-23T16:09:06.905Z,23.80
2023-05-23T16:11:53.573Z,23.80
2023-05-23T16:14:40.744Z,23.90
2023-05-23T16:17:20.610Z,23.80
2023-05-23T16:20:07.755Z,23.80
2023-05-23T16:22:47.647Z,23.80
2023-05-23T16:25:34.760Z,23.80
2023-05-23T16:28:14.614Z,23.80
2023-05-23T16:31:01.817Z,23.80
2023-05-23T16:33:41.660Z,23.80
2023-05-23T16:36:28.825Z,23.70
2023-05-23T16:39:08.777Z,23.60
2023-05-23T16:42:02.815Z,23.50
2023-05-23T16:44:49.875Z,23.50
2023-05-23T16:47:29.660Z,23.50
2023-05-23T16:50:16.754Z,23.60
2023-05-23T16:52:56.678Z,23.50
2023-05-23T16:55:44.019Z,23.60
2023-05-23T16:58:23.791Z,23.50
2023-05-23T17:01:11.091Z,23.50
2023-05-23T17:03:50.777Z,23.30
2023-05-23T17:06:37.657Z,23.40
2023-05-23T17:09:24.689Z,23.40
2023-05-23T17:12:13.326Z,23.40
2023-05-23T17:14:52.683Z,23.20
2023-05-23T17:17:39.919Z,23.20
2023-05-23T17:20:19.671Z,23.20
2023-05-23T17:23:07.112Z,23.20
2023-05-23T17:25:46.683Z,23.20
2023-05-23T17:28:33.785Z,23.10
2023-05-23T17:31:14.763Z,23.10
2023-05-23T17:34:01.813Z,23.10
2023-05-23T17:36:42.738Z,23.10
2023-05-23T17:39:29.789Z,23.00
2023-05-23T17:42:10.820Z,23.00
2023-05-23T17:44:57.945Z,23.00
2023-05-23T17:47:37.767Z,22.90
2023-05-23T17:50:31.725Z,22.90
2023-05-23T17:53:18.835Z,22.90
2023-05-23T17:55:58.756Z,22.90
2023-05-23T17:58:46.154Z,22.90
2023-05-23T18:01:26.823Z,22.90
2023-05-23T18:04:07.212Z,22.80
2023-05-23T18:06:54.824Z,22.80
2023-05-23T18:09:35.001Z,22.80
2023-05-23T18:12:21.829Z,22.80
2023-05-23T18:15:08.961Z,22.80
2023-05-23T18:17:48.815Z,22.70
2023-05-23T18:20:36.358Z,22.70
2023-05-23T18:23:15.768Z,22.70
2023-05-23T18:26:02.947Z,22.70
2023-05-23T18:28:42.764Z,22.60
2023-05-23T18:31:29.883Z,22.60
2023-05-23T18:34:10.886Z,22.50
2023-05-23T18:36:57.869Z,22.40
2023-05-23T18:39:37.781Z,22.40
2023-05-23T18:42:24.955Z,22.40
2023-05-23T18:45:04.766Z,22.30
2023-05-23T18:47:52.060Z,22.30
2023-05-23T18:50:32.880Z,22.30
2023-05-23T18:53:46.794Z,22.30
2023-05-23T18:56:27.146Z,22.20
2023-05-23T18:59:13.806Z,22.20
2023-05-23T19:01:54.098Z,22.10
2023-05-23T19:04:41.708Z,22.20
2023-05-23T19:07:21.922Z,22.10
2023-05-23T19:10:08.826Z,22.10
2023-05-23T19:12:48.900Z,22.10
2023-05-23T19:15:35.888Z,22.10
2023-05-23T19:18:16.025Z,22.00
2023-05-23T19:21:02.901Z,22.00
2023-05-23T19:23:43.005Z,21.90
2023-05-23T19:26:29.941Z,21.80
2023-05-23T19:29:10.057Z,21.70
2023-05-23T19:31:56.874Z,21.70
2023-05-23T19:34:37.228Z,21.60
2023-05-23T19:37:23.918Z,21.60
2023-05-23T19:40:04.566Z,21.60
2023-05-23T19:42:58.862Z,21.50
2023-05-23T19:45:39.249Z,21.50
2023-05-23T19:48:25.868Z,21.50
2023-05-23T19:51:12.892Z,21.40
2023-05-23T19:53:54.612Z,21.30
2023-05-23T19:56:42.865Z,21.30
2023-05-23T19:59:22.986Z,21.20
2023-05-23T20:02:09.887Z,21.10
2023-05-23T20:04:49.993Z,21.10
2023-05-23T20:07:36.896Z,21.00
2023-05-23T20:10:17.149Z,21.00
2023-05-23T20:13:04.010Z,20.90
2023-05-23T20:15:43.994Z,20.90
2023-05-23T20:18:30.923Z,20.90
2023-05-23T20:21:11.782Z,20.90
2023-05-23T20:23:58.997Z,20.80
2023-05-23T20:26:39.083Z,20.80
2023-05-23T20:29:26.023Z,20.80
2023-05-23T20:32:06.789Z,20.70
2023-05-23T20:34:54.045Z,20.60
2023-05-23T20:37:34.866Z,20.50
2023-05-23T20:40:21.940Z,20.50
2023-05-23T20:43:10.534Z,20.50
2023-05-23T20:45:51.017Z,20.40
2023-05-23T20:48:38.160Z,20.30
2023-05-23T20:51:18.758Z,20.40
2023-05-23T20:54:05.967Z,20.40
2023-05-23T20:56:47.328Z,20.30
2023-05-23T20:59:36.941Z,20.30
2023-05-23T21:05:05.065Z,20.20
2023-05-23T21:07:45.269Z,20.20
2023-05-23T21:10:32.065Z,20.20
2023-05-23T21:13:12.140Z,20.10
2023-05-23T21:15:58.966Z,19.90
2023-05-23T21:18:39.136Z,19.90
2023-05-23T21:21:26.003Z,19.90
2023-05-23T21:24:06.656Z,19.80
2023-05-23T21:26:53.958Z,19.80
2023-05-23T21:29:34.127Z,19.70
2023-05-23T21:32:21.102Z,19.70
2023-05-23T21:35:01.190Z,19.60
2023-05-23T21:37:48.094Z,19.60
2023-05-23T21:40:32.832Z,19.60
2023-05-23T21:43:30.125Z,19.60
2023-05-23T21:46:17.204Z,19.60
2023-05-23T21:48:57.002Z,19.60
2023-05-23T21:51:51.019Z,19.60
2023-05-23T21:54:38.026Z,19.60
2023-05-23T21:57:30.257Z,19.50
2023-05-23T22:00:19.170Z,19.50
2023-05-23T22:03:25.213Z,19.40
2023-05-23T22:06:12.199Z,19.30
2023-05-23T22:08:53.018Z,19.30
2023-05-23T22:11:40.587Z,19.20
2023-05-23T22:14:20.053Z,19.10
2023-05-23T22:17:07.548Z,19.10
2023-05-23T22:19:47.025Z,19.00
2023-05-23T22:22:27.489Z,19.00
2023-05-23T22:25:14.049Z,18.90
2023-05-23T22:28:01.589Z,18.80
2023-05-23T22:30:41.310Z,18.80
2023-05-23T22:33:28.150Z,18.80
2023-05-23T22:36:09.136Z,18.80
2023-05-23T22:39:03.172Z,18.70
2023-05-23T22:41:57.053Z,18.70
2023-05-23T22:44:44.157Z,18.70
2023-05-23T22:47:24.396Z,18.60
2023-05-23T22:50:12.169Z,18.60
2023-05-23T22:53:12.927Z,18.60
2023-05-23T22:56:00.086Z,18.50
2023-05-23T22:58:40.249Z,18.50
2023-05-23T23:01:27.207Z,18.50
2023-05-23T23:04:07.194Z,18.40
2023-05-23T23:06:54.083Z,18.30
2023-05-23T23:09:34.218Z,18.20
2023-05-23T23:12:21.157Z,18.10
2023-05-23T23:15:01.721Z,18.10
2023-05-23T23:17:48.149Z,18.00
2023-05-23T23:20:28.265Z,18.00
2023-05-23T23:23:15.143Z,18.00
2023-05-23T23:28:42.172Z,17.80
2023-05-23T23:31:22.336Z,17.80
2023-05-23T23:34:09.146Z,17.80
2023-05-23T23:36:56.226Z,17.80
2023-05-23T23:39:43.354Z,17.70
2023-05-23T23:42:30.131Z,17.70
2023-05-23T23:45:11.474Z,17.70
2023-05-23T23:47:58.178Z,17.70
2023-05-23T23:50:38.281Z,17.70
2023-05-23T23:53:28.118Z,17.60
2023-05-23T23:56:08.304Z,17.50
2023-05-23T23:58:55.280Z,17.50
